Portada
METAR-TAF:

METAR-TAF

Aeropuertos :

Aeropuerto de Esbjerg

Esbjerg, Dinamarca

latitud: 55-32N, longitud: 008-34E, altitud: 30 m

Observación

El informe se hizo hace 39 minutos, a las 21:50 UTC
Viento 2 kt del noreste
Temperatura 15°C
Humedad 88%
Presión 1022 hPa
Visibilidad 10 km o más

METAR: EKEB 062150Z AUTO 05002KT 9999 NCD 15/13 Q1022

Hora: 00:29 (22:29 UTC)

Pronóstico

El informe se hizo hace 5 horas y 5 minutos, a las 17:24 UTC
Pronóstico válido del 06 a las 18 UTC al 06 a las 22 UTC
Viento 5 kt del sur-suroeste
Visibilidad 10 km o más
sin nubes por debajo de 1500 m y sin presencia de cumulonimbus.

TAF: EKEB 061724Z 0618/0622 21005KT CAVOK

Observaciones y pronósticos meteorológicos de más de 4000 aeropuertos (mensajes METAR y TAF).

Los puntos amarillos y rojos representan las estaciones disponibles.

Ponga el ratón en el punto deseado para ver el nombre de la estación.

Haga clic para ver las observaciones y los pronósticos meteorológicos.

Para cambiar el mapa : haga clic en los botones verdes con una cruz de color negro para hacer un zoom, en el botón verde con un guión para alejar o en las flechas verdes para mapas adyacentes.


METAR-TAF: